AKT1739 BGSF-CYDF
Flight info
| Callsign | AKT1739 |
|---|---|
| Flight time | N/A |
| Altitude | 38000 |
| Route | BAVKO1B BAVKO DCT MS DCT ENNSO/N0458F360 DCT HOIST DCT IRLOK DCT JANJO DCT YAY/N0385F160 V381 YDF |
| Aircraft | B38M/M-SDE1FGHILORVWXY/HB1 |
Departure
| Time | N/A |
|---|---|
| Airport | Kangerlussuaq International Airport (BGSF) |
Arrival
| Time | 2026-04-19 20:31 |
|---|---|
| Airport | Deer Lake Airport (CYDF) |
| Time | Latitude | Longitude | Altitude | Speed | Heading |
|---|---|---|---|---|---|
| 2026-04-19 19:34 | 54.64176 | -56.99993 | 37722 ft | 411 kts | 187° |
| 2026-04-19 19:34 | 54.61308 | -56.99994 | 37721 ft | 412 kts | 187° |
| 2026-04-19 19:35 | 54.55552 | -57.00013 | 37738 ft | 415 kts | 187° |
| 2026-04-19 19:35 | 54.49754 | -56.99959 | 37731 ft | 415 kts | 188° |
| 2026-04-19 19:36 | 54.43980 | -57.00030 | 37742 ft | 416 kts | 186° |
| 2026-04-19 19:36 | 54.38196 | -56.99985 | 37730 ft | 414 kts | 187° |
| 2026-04-19 19:37 | 54.32462 | -57.00321 | 37730 ft | 413 kts | 188° |
| 2026-04-19 19:37 | 54.26740 | -57.00543 | 37735 ft | 413 kts | 187° |
| 2026-04-19 19:38 | 54.20976 | -57.00800 | 37744 ft | 413 kts | 188° |
| 2026-04-19 19:38 | 54.15252 | -57.01050 | 37706 ft | 414 kts | 187° |
| 2026-04-19 19:39 | 54.09441 | -57.01301 | 37740 ft | 419 kts | 188° |
| 2026-04-19 19:39 | 54.03606 | -57.01552 | 37755 ft | 420 kts | 187° |
| 2026-04-19 19:40 | 53.97777 | -57.01802 | 37756 ft | 420 kts | 188° |
| 2026-04-19 19:40 | 53.91914 | -57.02055 | 37755 ft | 420 kts | 187° |
| 2026-04-19 19:41 | 53.86098 | -57.02303 | 37757 ft | 420 kts | 188° |
| 2026-04-19 19:41 | 53.80264 | -57.02552 | 37755 ft | 419 kts | 187° |
| 2026-04-19 19:42 | 53.74409 | -57.02802 | 37752 ft | 418 kts | 187° |
| 2026-04-19 19:42 | 53.68620 | -57.03048 | 37752 ft | 419 kts | 187° |
| 2026-04-19 19:43 | 53.62741 | -57.03300 | 37759 ft | 423 kts | 187° |
| 2026-04-19 19:43 | 53.56879 | -57.03543 | 37764 ft | 424 kts | 187° |
| 2026-04-19 19:44 | 53.50977 | -57.03793 | 37758 ft | 422 kts | 187° |
| 2026-04-19 19:44 | 53.45133 | -57.04038 | 37766 ft | 422 kts | 188° |
| 2026-04-19 19:45 | 53.39254 | -57.04285 | 37780 ft | 422 kts | 188° |
| 2026-04-19 19:45 | 53.33367 | -57.04531 | 37792 ft | 422 kts | 187° |
| 2026-04-19 19:46 | 53.27532 | -57.04774 | 37800 ft | 422 kts | 187° |
| 2026-04-19 19:46 | 53.21655 | -57.05018 | 37815 ft | 421 kts | 187° |
| 2026-04-19 19:47 | 53.15782 | -57.05261 | 37819 ft | 421 kts | 187° |
| 2026-04-19 19:47 | 53.09942 | -57.05502 | 37835 ft | 421 kts | 187° |
| 2026-04-19 19:48 | 53.04059 | -57.05744 | 37835 ft | 421 kts | 187° |
| 2026-04-19 19:48 | 52.98208 | -57.05985 | 37839 ft | 421 kts | 187° |
| 2026-04-19 19:49 | 52.92376 | -57.06224 | 37851 ft | 419 kts | 187° |
| 2026-04-19 19:49 | 52.86556 | -57.06462 | 37859 ft | 420 kts | 187° |
| 2026-04-19 19:50 | 52.80711 | -57.06700 | 37861 ft | 420 kts | 187° |
| 2026-04-19 19:50 | 52.74870 | -57.06937 | 37850 ft | 420 kts | 188° |
| 2026-04-19 19:51 | 52.68988 | -57.07178 | 37878 ft | 424 kts | 187° |
| 2026-04-19 19:51 | 52.63126 | -57.07410 | 37878 ft | 420 kts | 187° |
| 2026-04-19 19:52 | 52.57291 | -57.07650 | 37876 ft | 421 kts | 187° |
| 2026-04-19 19:52 | 52.51414 | -57.07884 | 37898 ft | 420 kts | 187° |
| 2026-04-19 19:53 | 52.45582 | -57.08119 | 37900 ft | 420 kts | 187° |
| 2026-04-19 19:53 | 52.39741 | -57.08353 | 37902 ft | 421 kts | 187° |
| 2026-04-19 19:54 | 52.33906 | -57.08585 | 37918 ft | 420 kts | 186° |
| 2026-04-19 19:54 | 52.28040 | -57.08818 | 37922 ft | 420 kts | 187° |
| 2026-04-19 19:55 | 52.22181 | -57.09051 | 37917 ft | 421 kts | 187° |
| 2026-04-19 19:55 | 52.16353 | -57.09281 | 37934 ft | 420 kts | 187° |
| 2026-04-19 19:56 | 52.10495 | -57.09513 | 37928 ft | 420 kts | 186° |
| 2026-04-19 19:56 | 52.04670 | -57.09741 | 37944 ft | 417 kts | 186° |
| 2026-04-19 19:57 | 51.98884 | -57.09970 | 37968 ft | 418 kts | 186° |
| 2026-04-19 19:57 | 51.93045 | -57.10197 | 37967 ft | 418 kts | 186° |
| 2026-04-19 19:58 | 51.87261 | -57.10424 | 37971 ft | 418 kts | 186° |
| 2026-04-19 19:58 | 51.81421 | -57.10653 | 37980 ft | 420 kts | 186° |
| 2026-04-19 19:59 | 51.75556 | -57.10879 | 37986 ft | 421 kts | 186° |
| 2026-04-19 19:59 | 51.69723 | -57.11106 | 37987 ft | 421 kts | 186° |
| 2026-04-19 20:00 | 51.63863 | -57.11332 | 37996 ft | 421 kts | 186° |
| 2026-04-19 20:00 | 51.58022 | -57.11557 | 37995 ft | 420 kts | 186° |
| 2026-04-19 20:01 | 51.52166 | -57.11783 | 37989 ft | 420 kts | 186° |
| 2026-04-19 20:01 | 51.46357 | -57.12005 | 37996 ft | 420 kts | 186° |
| 2026-04-19 20:02 | 51.40483 | -57.12231 | 37998 ft | 420 kts | 186° |
| 2026-04-19 20:02 | 51.34631 | -57.12455 | 37996 ft | 424 kts | 186° |
| 2026-04-19 20:03 | 51.28731 | -57.12677 | 37999 ft | 424 kts | 186° |
| 2026-04-19 20:03 | 51.22818 | -57.12903 | 38000 ft | 424 kts | 186° |
| 2026-04-19 20:04 | 51.16922 | -57.13126 | 37999 ft | 424 kts | 186° |
| 2026-04-19 20:04 | 51.11043 | -57.13348 | 37999 ft | 424 kts | 186° |
| 2026-04-19 20:05 | 51.05113 | -57.13572 | 37995 ft | 424 kts | 186° |
| 2026-04-19 20:05 | 50.99210 | -57.13794 | 37990 ft | 424 kts | 185° |
| 2026-04-19 20:06 | 50.93344 | -57.14013 | 37990 ft | 425 kts | 185° |
| 2026-04-19 20:06 | 50.87401 | -57.14236 | 37986 ft | 426 kts | 185° |
| 2026-04-19 20:06 | 50.84463 | -57.14345 | 37744 ft | 426 kts | 185° |
| 2026-04-19 20:07 | 50.81486 | -57.14456 | 37249 ft | 427 kts | 185° |
| 2026-04-19 20:07 | 50.78515 | -57.14567 | 36661 ft | 427 kts | 185° |
| 2026-04-19 20:07 | 50.75535 | -57.14678 | 36062 ft | 427 kts | 185° |
| 2026-04-19 20:07 | 50.72568 | -57.14789 | 35427 ft | 429 kts | 184° |
| 2026-04-19 20:08 | 50.69566 | -57.14901 | 34810 ft | 430 kts | 184° |
| 2026-04-19 20:08 | 50.66603 | -57.15009 | 34182 ft | 431 kts | 184° |
| 2026-04-19 20:08 | 50.63586 | -57.15121 | 33494 ft | 433 kts | 184° |
| 2026-04-19 20:08 | 50.60569 | -57.15232 | 32780 ft | 434 kts | 184° |
| 2026-04-19 20:09 | 50.57540 | -57.15344 | 32164 ft | 432 kts | 184° |
| 2026-04-19 20:09 | 50.54550 | -57.15452 | 31704 ft | 427 kts | 184° |
| 2026-04-19 20:09 | 50.51582 | -57.15561 | 31194 ft | 423 kts | 184° |
| 2026-04-19 20:09 | 50.48681 | -57.15667 | 30734 ft | 419 kts | 184° |
| 2026-04-19 20:10 | 50.45779 | -57.15776 | 30252 ft | 416 kts | 184° |
| 2026-04-19 20:10 | 50.42883 | -57.15883 | 29755 ft | 412 kts | 184° |
| 2026-04-19 20:10 | 50.40050 | -57.15985 | 29213 ft | 409 kts | 184° |
| 2026-04-19 20:10 | 50.37213 | -57.16088 | 28693 ft | 406 kts | 184° |
| 2026-04-19 20:11 | 50.34396 | -57.16192 | 28176 ft | 402 kts | 184° |
| 2026-04-19 20:11 | 50.32543 | -57.16260 | 27827 ft | 400 kts | 184° |
| 2026-04-19 20:11 | 50.28845 | -57.16395 | 27159 ft | 396 kts | 184° |
| 2026-04-19 20:11 | 50.26096 | -57.16494 | 26684 ft | 393 kts | 184° |
| 2026-04-19 20:12 | 50.24290 | -57.16560 | 26368 ft | 391 kts | 184° |
| 2026-04-19 20:12 | 50.21580 | -57.16659 | 25903 ft | 388 kts | 184° |
| 2026-04-19 20:12 | 50.18873 | -57.16758 | 25440 ft | 386 kts | 184° |
| 2026-04-19 20:12 | 50.16199 | -57.16855 | 24988 ft | 383 kts | 184° |
| 2026-04-19 20:13 | 50.13579 | -57.16949 | 24547 ft | 380 kts | 184° |
| 2026-04-19 20:13 | 50.10941 | -57.17044 | 24106 ft | 377 kts | 184° |
| 2026-04-19 20:13 | 50.08324 | -57.17139 | 23667 ft | 375 kts | 185° |
| 2026-04-19 20:13 | 50.05711 | -57.17234 | 23163 ft | 373 kts | 185° |
| 2026-04-19 20:14 | 50.03148 | -57.17326 | 22670 ft | 370 kts | 185° |
| 2026-04-19 20:14 | 50.00587 | -57.17418 | 22191 ft | 367 kts | 185° |
| 2026-04-19 20:14 | 49.98037 | -57.17510 | 21721 ft | 364 kts | 185° |
| 2026-04-19 20:14 | 49.95516 | -57.17601 | 21269 ft | 361 kts | 185° |
| 2026-04-19 20:15 | 49.93011 | -57.17691 | 20819 ft | 358 kts | 184° |
| 2026-04-19 20:15 | 49.90534 | -57.17779 | 20397 ft | 354 kts | 184° |
| 2026-04-19 20:15 | 49.88077 | -57.17867 | 19968 ft | 351 kts | 184° |
| 2026-04-19 20:15 | 49.85659 | -57.17954 | 19552 ft | 348 kts | 184° |
| 2026-04-19 20:16 | 49.83234 | -57.18041 | 19137 ft | 346 kts | 184° |
| 2026-04-19 20:16 | 49.80863 | -57.18125 | 18735 ft | 343 kts | 184° |
| 2026-04-19 20:16 | 49.78483 | -57.18210 | 18318 ft | 340 kts | 184° |
| 2026-04-19 20:16 | 49.76124 | -57.18294 | 17835 ft | 337 kts | 185° |
| 2026-04-19 20:17 | 49.73776 | -57.18378 | 17370 ft | 335 kts | 185° |
| 2026-04-19 20:17 | 49.71449 | -57.18461 | 16913 ft | 332 kts | 185° |
| 2026-04-19 20:17 | 49.69173 | -57.18542 | 16462 ft | 330 kts | 185° |
| 2026-04-19 20:17 | 49.66878 | -57.18623 | 16000 ft | 328 kts | 185° |
| 2026-04-19 20:18 | 49.64603 | -57.18704 | 15568 ft | 326 kts | 185° |
| 2026-04-19 20:18 | 49.62343 | -57.18784 | 15137 ft | 323 kts | 185° |
| 2026-04-19 20:18 | 49.60099 | -57.18864 | 14726 ft | 321 kts | 185° |
| 2026-04-19 20:18 | 49.57868 | -57.18943 | 14299 ft | 319 kts | 185° |
| 2026-04-19 20:19 | 49.55647 | -57.19021 | 13891 ft | 317 kts | 185° |
| 2026-04-19 20:19 | 49.53484 | -57.19097 | 13575 ft | 311 kts | 185° |
| 2026-04-19 20:19 | 49.51348 | -57.19170 | 13393 ft | 302 kts | 185° |
| 2026-04-19 20:19 | 49.49282 | -57.19242 | 13301 ft | 290 kts | 186° |
| 2026-04-19 20:20 | 49.47299 | -57.19311 | 13236 ft | 279 kts | 186° |
| 2026-04-19 20:20 | 49.45403 | -57.19379 | 13173 ft | 269 kts | 186° |
| 2026-04-19 20:20 | 49.43564 | -57.19444 | 13105 ft | 259 kts | 186° |
| 2026-04-19 20:20 | 49.41792 | -57.19506 | 13036 ft | 250 kts | 186° |
| 2026-04-19 20:21 | 49.40063 | -57.19568 | 12808 ft | 247 kts | 186° |
| 2026-04-19 20:21 | 49.38342 | -57.19691 | 12453 ft | 247 kts | 192° |
| 2026-04-19 20:21 | 49.36699 | -57.20304 | 12025 ft | 247 kts | 211° |
| 2026-04-19 20:21 | 49.35499 | -57.22174 | 11616 ft | 252 kts | 245° |
| 2026-04-19 20:22 | 49.35301 | -57.24883 | 11259 ft | 267 kts | 278° |
| 2026-04-19 20:22 | 49.36238 | -57.27423 | 10961 ft | 287 kts | 312° |
| 2026-04-19 20:22 | 49.37949 | -57.28911 | 10589 ft | 286 kts | 334° |
| 2026-04-19 20:22 | 49.39841 | -57.29704 | 10186 ft | 276 kts | 341° |
| 2026-04-19 20:23 | 49.41675 | -57.30298 | 9829 ft | 263 kts | 342° |
| 2026-04-19 20:23 | 49.43471 | -57.30741 | 9320 ft | 263 kts | 357° |
| 2026-04-19 20:23 | 49.45213 | -57.29854 | 8805 ft | 269 kts | 37° |
| 2026-04-19 20:23 | 49.46317 | -57.27610 | 8279 ft | 263 kts | 77° |
| 2026-04-19 20:24 | 49.46368 | -57.24937 | 7764 ft | 242 kts | 118° |
| 2026-04-19 20:24 | 49.45447 | -57.23023 | 7281 ft | 213 kts | 159° |
| 2026-04-19 20:24 | 49.44140 | -57.22121 | 6837 ft | 202 kts | 170° |
| 2026-04-19 20:24 | 49.42826 | -57.21463 | 6378 ft | 200 kts | 172° |
| 2026-04-19 20:25 | 49.41501 | -57.20829 | 5895 ft | 197 kts | 172° |
| 2026-04-19 20:25 | 49.40205 | -57.20218 | 5444 ft | 193 kts | 172° |
| 2026-04-19 20:25 | 49.38930 | -57.19691 | 5003 ft | 184 kts | 179° |
| 2026-04-19 20:25 | 49.37694 | -57.19445 | 4571 ft | 178 kts | 181° |
| 2026-04-19 20:26 | 49.36488 | -57.19260 | 4316 ft | 170 kts | 182° |
| 2026-04-19 20:26 | 49.35343 | -57.19513 | 4071 ft | 165 kts | 199° |
| 2026-04-19 20:26 | 49.34278 | -57.20072 | 3828 ft | 163 kts | 202° |
| 2026-04-19 20:26 | 49.33251 | -57.20782 | 3585 ft | 161 kts | 208° |
| 2026-04-19 20:27 | 49.32266 | -57.21630 | 3141 ft | 164 kts | 211° |
| 2026-04-19 20:27 | 49.31386 | -57.22710 | 2939 ft | 166 kts | 219° |
| 2026-04-19 20:27 | 49.30572 | -57.23928 | 2699 ft | 161 kts | 221° |
| 2026-04-19 20:27 | 49.29835 | -57.25117 | 2485 ft | 150 kts | 221° |
| 2026-04-19 20:28 | 49.29093 | -57.26307 | 2265 ft | 155 kts | 222° |
| 2026-04-19 20:28 | 49.28378 | -57.27462 | 2057 ft | 151 kts | 222° |
| 2026-04-19 20:28 | 49.27644 | -57.28641 | 1840 ft | 149 kts | 222° |
| 2026-04-19 20:28 | 49.26931 | -57.29787 | 1633 ft | 150 kts | 223° |
| 2026-04-19 20:29 | 49.26225 | -57.30925 | 1424 ft | 146 kts | 223° |
| 2026-04-19 20:29 | 49.25528 | -57.32042 | 1217 ft | 145 kts | 223° |
| 2026-04-19 20:29 | 49.24844 | -57.33152 | 997 ft | 140 kts | 225° |
| 2026-04-19 20:30 | 49.23553 | -57.35274 | 604 ft | 134 kts | 223° |
| 2026-04-19 20:30 | 49.22919 | -57.36283 | 457 ft | 131 kts | 221° |
| 2026-04-19 20:30 | 49.22276 | -57.37279 | 263 ft | 131 kts | 221° |
| 2026-04-19 20:30 | 49.21651 | -57.38275 | 70 ft | 120 kts | 224° |
| 2026-04-19 20:31 | 49.21168 | -57.39040 | 54 ft | 75 kts | 225° |
| 2026-04-19 20:31 | 49.20920 | -57.39454 | 53 ft | 37 kts | 226° |
| 2026-04-19 20:31 | 49.20768 | -57.39676 | 51 ft | 21 kts | 237° |
| 2026-04-19 20:31 | 49.20799 | -57.39822 | 51 ft | 11 kts | 313° |
| 2026-04-19 20:32 | 49.20829 | -57.39864 | 59 ft | 3 kts | 324° |
| 2026-04-19 20:32 | 49.20846 | -57.39872 | 58 ft | 3 kts | 352° |
| 2026-04-19 20:32 | 49.20885 | -57.39853 | 53 ft | 9 kts | 33° |
| 2026-04-19 20:32 | 49.20941 | -57.39846 | 55 ft | 8 kts | 329° |
| 2026-04-19 20:33 | 49.20957 | -57.39852 | 53 ft | 2 kts | 359° |
| 2026-04-19 20:33 | 49.20969 | -57.39852 | 52 ft | 0 kts | 2° |